createdAt,value
2022-09-12T00:01:27.384Z,81.25
2022-09-12T00:04:00.224Z,92.28
2022-09-12T00:06:36.381Z,99.68
2022-09-12T00:09:09.577Z,95.13
2022-09-12T00:11:40.078Z,105.45
2022-09-12T00:14:09.763Z,122.15
2022-09-12T00:16:38.534Z,119.63
2022-09-12T00:19:07.391Z,127.40
2022-09-12T00:21:36.751Z,118.75
2022-09-12T00:24:04.681Z,135.30
2022-09-12T00:26:32.552Z,140.77
2022-09-12T00:29:00.009Z,146.13
2022-09-12T00:31:28.097Z,161.65
2022-09-12T00:36:25.225Z,163.98
2022-09-12T00:38:54.609Z,165.13
2022-09-12T00:41:28.448Z,185.85
2022-09-12T00:44:14.900Z,177.05
2022-09-12T00:46:53.822Z,177.13
2022-09-12T00:49:34.720Z,186.80
2022-09-12T00:52:10.550Z,175.85
2022-09-12T00:55:03.804Z,186.43
2022-09-12T00:57:53.702Z,187.55
2022-09-12T01:00:24.208Z,189.73
2022-09-12T01:03:12.171Z,174.63
2022-09-12T01:08:12.485Z,170.82
2022-09-12T01:10:42.512Z,176.35
2022-09-12T01:13:11.367Z,173.52
2022-09-12T01:15:40.414Z,157.13
2022-09-12T01:18:45.469Z,152.00
2022-09-12T01:21:48.848Z,144.65
2022-09-12T01:24:35.378Z,146.23
2022-09-12T01:27:08.635Z,130.77
2022-09-12T01:30:03.041Z,128.48
2022-09-12T01:33:12.444Z,116.18
2022-09-12T01:36:11.500Z,107.07
2022-09-12T01:39:08.159Z,96.22
2022-09-12T01:42:00.207Z,86.68
2022-09-12T01:44:44.981Z,76.50
2022-09-12T01:47:35.998Z,82.63
2022-09-12T01:50:09.187Z,74.55
2022-09-12T01:52:44.001Z,79.25
2022-09-12T01:55:17.965Z,73.05
2022-09-12T01:58:07.251Z,57.45
2022-09-12T02:00:40.178Z,61.88
2022-09-12T02:03:31.047Z,59.38
2022-09-12T02:06:06.636Z,47.33
2022-09-12T02:08:45.497Z,48.00
2022-09-12T02:11:13.758Z,45.97
2022-09-12T02:13:56.789Z,44.88
2022-09-12T02:16:35.294Z,42.58
2022-09-12T02:19:27.400Z,42.38
2022-09-12T02:21:58.115Z,40.97
2022-09-12T02:24:32.104Z,39.30
2022-09-12T02:27:05.685Z,40.65
2022-09-12T02:29:33.354Z,37.10
2022-09-12T02:32:08.154Z,33.38
2022-09-12T02:35:07.177Z,33.42
2022-09-12T02:37:37.542Z,29.17
2022-09-12T02:40:07.048Z,30.75
2022-09-12T02:42:36.103Z,30.67
2022-09-12T02:45:04.320Z,35.70
2022-09-12T02:47:45.778Z,31.67
2022-09-12T02:50:13.595Z,41.58
2022-09-12T02:52:42.335Z,35.33
2022-09-12T02:55:11.645Z,30.00
2022-09-12T02:57:39.196Z,33.88
2022-09-12T03:00:08.422Z,31.15
2022-09-12T03:03:09.428Z,25.95
2022-09-12T03:05:55.879Z,29.20
2022-09-12T03:08:53.829Z,24.92
2022-09-12T03:11:27.247Z,22.50
2022-09-12T03:14:42.564Z,28.42
2022-09-12T03:17:31.336Z,23.52
2022-09-12T03:20:17.490Z,24.10
2022-09-12T03:22:49.243Z,32.45
2022-09-12T03:25:36.487Z,23.88
2022-09-12T03:28:11.733Z,23.85
2022-09-12T03:30:45.602Z,24.23
2022-09-12T03:33:20.813Z,28.05
2022-09-12T03:35:49.194Z,25.40
2022-09-12T03:40:44.438Z,33.30
2022-09-12T03:43:12.489Z,28.02
2022-09-12T03:45:40.092Z,27.60
2022-09-12T03:48:07.786Z,29.30
2022-09-12T03:50:35.244Z,34.80
2022-09-12T03:53:03.824Z,30.40
2022-09-12T03:55:31.386Z,30.85
2022-09-12T03:57:58.917Z,33.72
2022-09-12T04:00:26.604Z,34.15
2022-09-12T04:02:57.887Z,32.60
2022-09-12T04:05:26.351Z,29.80
2022-09-12T04:07:53.883Z,32.58
2022-09-12T04:10:21.406Z,34.85
2022-09-12T04:12:48.880Z,34.50
2022-09-12T04:15:16.505Z,31.98
2022-09-12T04:17:43.929Z,34.33
2022-09-12T04:20:11.548Z,31.48
2022-09-12T04:22:39.027Z,35.67
2022-09-12T04:25:07.429Z,34.03
2022-09-12T04:27:35.549Z,33.95
2022-09-12T04:30:03.747Z,41.50
2022-09-12T04:32:31.997Z,39.72
2022-09-12T04:34:59.447Z,36.08
2022-09-12T04:37:26.909Z,36.70
2022-09-12T04:39:57.828Z,36.83
2022-09-12T04:42:25.659Z,34.60
2022-09-12T04:44:53.243Z,42.00
2022-09-12T04:47:20.898Z,37.92
2022-09-12T04:49:49.819Z,39.35
2022-09-12T04:52:17.334Z,36.00
2022-09-12T04:54:44.843Z,38.38
2022-09-12T04:57:13.340Z,34.20
2022-09-12T05:02:08.374Z,34.25
2022-09-12T05:04:36.311Z,33.28
2022-09-12T05:07:04.076Z,38.58
2022-09-12T05:09:31.890Z,31.83
2022-09-12T05:12:04.210Z,28.85
2022-09-12T05:14:33.245Z,34.30
2022-09-12T05:17:01.787Z,38.22
2022-09-12T05:19:31.180Z,34.05
2022-09-12T05:21:59.536Z,34.13
2022-09-12T05:26:54.495Z,31.05
2022-09-12T05:29:22.084Z,26.00
2022-09-12T05:31:52.015Z,27.13
2022-09-12T05:34:20.628Z,27.40
2022-09-12T05:36:49.099Z,24.85
2022-09-12T05:39:16.743Z,24.20
2022-09-12T05:41:44.259Z,20.50
2022-09-12T05:44:14.196Z,20.40
2022-09-12T05:46:43.844Z,23.55
2022-09-12T05:49:14.670Z,26.92
2022-09-12T05:51:45.162Z,21.88
2022-09-12T05:54:15.747Z,23.13
2022-09-12T05:56:44.193Z,22.75
2022-09-12T05:59:20.531Z,20.48
2022-09-12T06:01:48.943Z,21.25
2022-09-12T06:04:17.110Z,20.52
2022-09-12T06:06:46.181Z,18.45
2022-09-12T06:09:16.243Z,14.35
2022-09-12T06:11:45.323Z,18.38
2022-09-12T06:14:15.399Z,15.07
2022-09-12T06:16:43.232Z,22.73
2022-09-12T06:19:19.535Z,14.85
2022-09-12T06:21:49.502Z,19.65
2022-09-12T06:24:18.189Z,14.02
2022-09-12T06:26:47.409Z,12.90
2022-09-12T06:29:15.504Z,13.52
2022-09-12T06:31:44.020Z,11.07
2022-09-12T06:34:14.289Z,11.82
2022-09-12T06:36:49.078Z,8.00
2022-09-12T06:39:19.290Z,13.93
2022-09-12T06:41:48.328Z,11.95
2022-09-12T06:44:17.957Z,13.25
2022-09-12T06:46:45.914Z,8.68
2022-09-12T06:49:14.182Z,13.10
2022-09-12T06:51:42.617Z,7.97
2022-09-12T06:54:16.702Z,8.90
2022-09-12T06:56:44.870Z,14.80
2022-09-12T07:01:42.169Z,8.70
2022-09-12T07:04:10.453Z,9.95
2022-09-12T07:09:18.009Z,11.43
2022-09-12T07:11:46.422Z,7.50
2022-09-12T07:14:17.565Z,10.32
2022-09-12T07:16:45.137Z,9.75
2022-09-12T07:19:12.805Z,7.70
2022-09-12T07:21:40.954Z,8.43
2022-09-12T07:24:10.332Z,9.80
2022-09-12T07:26:40.087Z,9.02
2022-09-12T07:29:35.483Z,8.90
2022-09-12T07:32:01.810Z,9.23
2022-09-12T07:34:29.381Z,6.10
2022-09-12T07:37:00.168Z,9.40
2022-09-12T07:39:27.727Z,19.10
2022-09-12T07:41:57.780Z,7.47
2022-09-12T07:44:25.396Z,8.23
2022-09-12T07:46:52.811Z,8.70
2022-09-12T07:49:20.266Z,11.18
2022-09-12T07:51:47.823Z,9.30
2022-09-12T07:54:15.871Z,9.05
2022-09-12T07:56:43.473Z,8.13
2022-09-12T07:59:10.954Z,9.43
2022-09-12T08:01:39.811Z,8.27
2022-09-12T08:04:07.627Z,9.60
2022-09-12T08:06:36.387Z,6.35
2022-09-12T08:09:05.641Z,8.02
2022-09-12T08:11:33.642Z,14.60
2022-09-12T08:14:03.071Z,7.55
2022-09-12T08:16:31.673Z,4.50
2022-09-12T08:19:02.153Z,5.88
2022-09-12T08:21:31.948Z,10.93
2022-09-12T08:24:04.816Z,6.18
2022-09-12T08:26:33.779Z,5.43
2022-09-12T08:29:01.651Z,3.53
2022-09-12T08:31:29.384Z,9.23
2022-09-12T08:33:58.809Z,10.00
2022-09-12T08:36:27.800Z,6.97
2022-09-12T08:38:59.924Z,7.28
2022-09-12T08:41:35.286Z,11.55
2022-09-12T08:44:28.442Z,7.38
2022-09-12T08:47:33.632Z,7.82
2022-09-12T08:50:10.321Z,5.03
2022-09-12T08:52:50.558Z,6.93
2022-09-12T08:55:34.354Z,7.70
2022-09-12T08:58:11.979Z,6.70
2022-09-12T09:01:03.176Z,7.97
2022-09-12T09:04:02.108Z,6.75
2022-09-12T09:06:32.659Z,8.25
2022-09-12T09:09:14.226Z,8.15
2022-09-12T09:12:04.600Z,6.32
2022-09-12T09:14:50.035Z,6.03
2022-09-12T09:17:35.962Z,7.22
2022-09-12T09:20:08.468Z,6.70
2022-09-12T09:22:56.169Z,5.32
2022-09-12T09:28:06.020Z,4.60
2022-09-12T09:30:35.946Z,7.03
2022-09-12T09:33:05.503Z,7.50
2022-09-12T09:35:46.509Z,5.88
2022-09-12T09:38:59.896Z,4.93
2022-09-12T09:41:39.464Z,3.80
2022-09-12T09:46:35.557Z,5.18
2022-09-12T09:49:03.995Z,10.57
2022-09-12T09:51:37.651Z,7.82
2022-09-12T09:54:20.228Z,5.13
2022-09-12T09:56:47.779Z,6.15
2022-09-12T09:59:32.598Z,9.13
2022-09-12T10:02:24.319Z,6.43
2022-09-12T10:05:00.638Z,8.57
2022-09-12T10:07:28.236Z,7.75
2022-09-12T10:10:18.218Z,8.90
2022-09-12T10:12:46.032Z,10.75
2022-09-12T10:15:29.554Z,8.35
2022-09-12T10:18:00.049Z,8.10
2022-09-12T10:20:43.945Z,7.13
2022-09-12T10:23:20.363Z,12.77
2022-09-12T10:26:01.369Z,6.45
2022-09-12T10:28:54.680Z,7.35
2022-09-12T10:31:43.215Z,10.45
2022-09-12T10:34:22.645Z,10.50
2022-09-12T10:36:54.678Z,7.75
2022-09-12T10:39:22.508Z,10.73
2022-09-12T10:41:50.823Z,9.90
2022-09-12T10:44:28.874Z,10.80
2022-09-12T10:46:59.576Z,15.30
2022-09-12T10:53:23.771Z,11.82
2022-09-12T10:56:19.580Z,11.77
2022-09-12T11:07:44.509Z,35.05
2022-09-12T11:10:17.910Z,21.17
2022-09-12T11:12:56.961Z,70.43
2022-09-12T11:15:49.509Z,27.35
2022-09-12T11:18:48.606Z,35.55
2022-09-12T11:21:27.645Z,23.90
2022-09-12T11:24:37.658Z,54.97
2022-09-12T11:27:16.336Z,31.65
2022-09-12T11:29:55.084Z,61.25
2022-09-12T11:32:44.011Z,87.72
2022-09-12T11:35:31.088Z,41.53
2022-09-12T11:38:05.124Z,94.03
2022-09-12T11:40:42.778Z,21.80
2022-09-12T11:43:22.243Z,22.80
2022-09-12T11:45:51.063Z,26.77
2022-09-12T11:48:35.535Z,23.10
2022-09-12T11:51:07.043Z,58.33
2022-09-12T11:53:40.772Z,16.25
2022-09-12T11:56:19.175Z,21.63
2022-09-12T11:58:53.063Z,27.98
2022-09-12T12:01:28.673Z,19.10
2022-09-12T12:03:57.868Z,19.45
2022-09-12T12:06:33.618Z,20.38
2022-09-12T12:09:04.281Z,19.38
2022-09-12T12:11:43.198Z,17.65
2022-09-12T12:14:28.927Z,20.20
2022-09-12T12:16:57.563Z,21.85
2022-09-12T12:19:43.855Z,24.10
2022-09-12T12:22:22.480Z,24.35
2022-09-12T12:25:17.234Z,28.25
2022-09-12T12:27:49.275Z,8.73
2022-09-12T12:30:31.582Z,8.27
2022-09-12T12:33:10.194Z,10.82
2022-09-12T12:35:38.367Z,14.77
2022-09-12T12:38:39.176Z,5.40
2022-09-12T12:41:19.006Z,6.07
2022-09-12T12:43:56.342Z,9.57
2022-09-12T12:46:27.524Z,43.55
2022-09-12T12:49:24.641Z,6.53
2022-09-12T12:51:58.910Z,9.85
2022-09-12T12:54:41.720Z,6.35
2022-09-12T12:57:18.452Z,8.02
2022-09-12T12:59:51.137Z,6.80
2022-09-12T13:02:30.839Z,8.63
2022-09-12T13:05:22.660Z,9.52
2022-09-12T13:08:30.845Z,3.88
2022-09-12T13:11:23.397Z,3.42
2022-09-12T13:14:28.206Z,2.20
2022-09-12T13:17:02.071Z,4.35
2022-09-12T13:19:39.345Z,6.90
2022-09-12T13:25:07.804Z,5.18
2022-09-12T13:27:56.256Z,3.75
2022-09-12T13:30:25.347Z,8.25
2022-09-12T13:32:53.979Z,4.60
2022-09-12T13:35:31.116Z,5.22
2022-09-12T13:38:11.364Z,6.05
2022-09-12T13:41:07.544Z,7.75
2022-09-12T13:43:48.078Z,14.25
2022-09-12T13:46:25.604Z,6.65
2022-09-12T13:48:53.742Z,5.97
2022-09-12T13:51:30.547Z,6.25
2022-09-12T13:54:02.307Z,11.30
2022-09-12T13:56:29.907Z,11.73
2022-09-12T13:59:03.454Z,6.13
2022-09-12T14:01:45.990Z,7.10
2022-09-12T14:04:43.799Z,4.60
2022-09-12T14:07:20.161Z,4.03
2022-09-12T14:09:59.925Z,5.10
2022-09-12T14:12:43.360Z,5.20
2022-09-12T14:15:26.924Z,3.67
2022-09-12T14:18:03.159Z,7.43
2022-09-12T14:20:39.417Z,4.85
2022-09-12T14:23:26.749Z,4.75
2022-09-12T14:26:00.052Z,11.02
2022-09-12T14:28:29.068Z,7.00
2022-09-12T14:31:06.900Z,7.70
2022-09-12T14:33:53.512Z,4.50
2022-09-12T14:36:24.830Z,6.82
2022-09-12T14:39:02.329Z,7.70
2022-09-12T14:41:36.292Z,3.95
2022-09-12T14:44:08.383Z,4.63
2022-09-12T14:46:40.793Z,5.28
2022-09-12T14:49:25.522Z,2.97
2022-09-12T14:52:00.012Z,3.38
2022-09-12T14:54:27.613Z,4.60
2022-09-12T14:57:02.386Z,3.95
2022-09-12T14:59:36.269Z,5.45
2022-09-12T15:02:22.165Z,5.05
2022-09-12T15:05:20.204Z,4.55
2022-09-12T15:07:50.695Z,3.50
2022-09-12T15:10:36.591Z,4.07
2022-09-12T15:13:18.998Z,4.88
2022-09-12T15:15:54.529Z,2.53
2022-09-12T15:18:24.485Z,3.78
2022-09-12T15:21:46.433Z,4.35
2022-09-12T15:24:22.613Z,7.55
2022-09-12T15:27:26.794Z,5.78
2022-09-12T15:30:07.339Z,3.85
2022-09-12T15:32:39.889Z,2.65
2022-09-12T15:35:35.654Z,2.92
2022-09-12T15:38:17.179Z,3.33
2022-09-12T15:40:52.777Z,2.80
2022-09-12T15:48:10.216Z,4.18
2022-09-12T15:50:41.459Z,4.53
2022-09-12T15:53:16.067Z,6.78
2022-09-12T15:55:44.584Z,4.43
2022-09-12T15:58:12.542Z,3.78
2022-09-12T16:00:40.147Z,5.22
2022-09-12T16:03:21.668Z,4.60
2022-09-12T16:05:49.911Z,4.45
2022-09-12T16:08:17.424Z,4.13
2022-09-12T16:10:47.347Z,3.80
2022-09-12T16:13:14.870Z,6.07
2022-09-12T16:15:42.341Z,4.88
2022-09-12T16:18:09.823Z,6.20
2022-09-12T16:20:40.168Z,6.68
2022-09-12T16:23:10.927Z,8.40
2022-09-12T16:25:39.839Z,3.72
2022-09-12T16:28:07.510Z,7.25
2022-09-12T16:30:35.739Z,7.28
2022-09-12T16:33:03.718Z,4.65
2022-09-12T16:37:59.059Z,5.00
2022-09-12T16:40:26.527Z,7.45
2022-09-12T16:42:54.133Z,6.18
2022-09-12T16:45:21.576Z,4.00
2022-09-12T16:47:48.979Z,4.47
2022-09-12T16:50:16.632Z,5.63
2022-09-12T16:52:44.383Z,5.57
2022-09-12T16:55:11.874Z,3.78
2022-09-12T16:57:39.365Z,5.57
2022-09-12T17:00:07.680Z,4.35
2022-09-12T17:02:38.397Z,5.57
2022-09-12T17:05:07.791Z,7.10
2022-09-12T17:07:35.331Z,5.35
2022-09-12T17:10:02.916Z,6.95
2022-09-12T17:12:30.883Z,4.40
2022-09-12T17:14:58.763Z,7.78
2022-09-12T17:17:26.812Z,7.53
2022-09-12T17:19:54.376Z,6.45
2022-09-12T17:22:22.094Z,6.43
2022-09-12T17:24:49.552Z,3.10
2022-09-12T17:27:17.006Z,6.68
2022-09-12T17:29:44.420Z,4.15
2022-09-12T17:32:15.645Z,3.58
2022-09-12T17:34:44.982Z,5.63
2022-09-12T17:37:14.238Z,7.90
2022-09-12T17:39:42.024Z,6.70
2022-09-12T17:42:09.889Z,6.03
2022-09-12T17:44:38.123Z,5.63
2022-09-12T17:49:34.276Z,6.57
2022-09-12T17:52:02.343Z,5.10
2022-09-12T17:54:29.856Z,7.88
2022-09-12T17:56:57.357Z,6.07
2022-09-12T17:59:25.059Z,4.90
2022-09-12T18:02:10.946Z,5.97
2022-09-12T18:04:40.626Z,7.25
2022-09-12T18:07:08.447Z,4.28
2022-09-12T18:09:36.407Z,6.20
2022-09-12T18:12:04.174Z,9.30
2022-09-12T18:14:31.643Z,4.40
2022-09-12T18:17:00.236Z,3.92
2022-09-12T18:19:28.488Z,4.82
2022-09-12T18:21:56.747Z,5.95
2022-09-12T18:24:24.264Z,5.80
2022-09-12T18:26:51.908Z,9.88
2022-09-12T18:29:20.012Z,9.32
2022-09-12T18:31:47.566Z,10.68
2022-09-12T18:34:16.358Z,9.38
2022-09-12T18:36:46.019Z,10.00
2022-09-12T18:39:14.167Z,10.68
2022-09-12T18:44:11.917Z,62.80
2022-09-12T18:46:39.987Z,54.67
2022-09-12T18:49:09.297Z,25.05
2022-09-12T18:51:40.022Z,23.42
2022-09-12T18:54:12.736Z,17.00
2022-09-12T18:56:43.475Z,11.90
2022-09-12T18:59:13.962Z,11.48
2022-09-12T19:01:42.792Z,22.45
2022-09-12T19:04:12.160Z,43.88
2022-09-12T19:06:42.512Z,24.60
2022-09-12T19:09:10.998Z,22.08
2022-09-12T19:11:44.706Z,39.80
2022-09-12T19:14:12.135Z,48.42
2022-09-12T19:16:39.929Z,30.38
2022-09-12T19:19:10.171Z,28.38
2022-09-12T19:21:37.674Z,27.95
2022-09-12T19:24:10.007Z,26.33
2022-09-12T19:26:39.133Z,25.35
2022-09-12T19:29:07.757Z,16.83
2022-09-12T19:31:35.360Z,15.43
2022-09-12T19:34:05.595Z,12.38
2022-09-12T19:36:44.764Z,11.55
2022-09-12T19:39:13.188Z,10.63
2022-09-12T19:41:40.630Z,8.45
2022-09-12T19:44:08.323Z,8.40
2022-09-12T19:46:35.811Z,8.10
2022-09-12T19:49:03.735Z,9.20
2022-09-12T19:51:31.452Z,9.30
2022-09-12T19:53:59.001Z,13.85
2022-09-12T19:56:26.443Z,13.60
2022-09-12T19:58:56.746Z,7.95
2022-09-12T20:01:30.009Z,10.00
2022-09-12T20:03:58.405Z,8.75
2022-09-12T20:06:27.280Z,8.75
2022-09-12T20:08:55.971Z,5.70
2022-09-12T20:11:24.503Z,9.82
2022-09-12T20:13:52.648Z,7.65
2022-09-12T20:18:56.024Z,6.05
2022-09-12T20:21:31.013Z,5.53
2022-09-12T20:24:10.179Z,5.78
2022-09-12T20:26:37.988Z,6.03
2022-09-12T20:29:06.944Z,6.35
2022-09-12T20:31:35.741Z,5.70
2022-09-12T20:34:04.158Z,8.70
2022-09-12T20:36:31.927Z,6.45
2022-09-12T20:39:01.244Z,5.97
2022-09-12T20:41:31.640Z,7.53
2022-09-12T20:43:59.355Z,8.45
2022-09-12T20:46:28.674Z,4.18
2022-09-12T20:48:58.797Z,8.05
2022-09-12T20:51:26.791Z,5.50
2022-09-12T20:53:55.114Z,5.45
2022-09-12T20:56:23.592Z,6.38
2022-09-12T20:58:51.654Z,4.60
2022-09-12T21:01:19.681Z,8.05
2022-09-12T21:03:48.141Z,8.25
2022-09-12T21:06:19.320Z,4.72
2022-09-12T21:08:47.923Z,6.15
2022-09-12T21:11:16.997Z,5.03
2022-09-12T21:13:44.859Z,11.38
2022-09-12T21:16:15.225Z,7.63
2022-09-12T21:18:43.285Z,6.15
2022-09-12T21:21:12.915Z,11.57
2022-09-12T21:23:41.233Z,9.52
2022-09-12T21:26:08.849Z,9.40
2022-09-12T21:28:36.463Z,8.15
2022-09-12T21:31:04.165Z,8.23
2022-09-12T21:33:31.692Z,9.93
2022-09-12T21:36:06.936Z,8.75
2022-09-12T21:38:34.451Z,7.35
2022-09-12T21:41:16.057Z,7.68
2022-09-12T21:43:44.084Z,10.52
2022-09-12T21:46:12.043Z,9.30
2022-09-12T21:48:39.646Z,5.63
2022-09-12T21:51:07.289Z,8.95
2022-09-12T21:53:34.856Z,7.45
2022-09-12T21:56:04.851Z,8.57
2022-09-12T21:58:32.600Z,11.63
2022-09-12T22:01:01.275Z,10.98
2022-09-12T22:03:29.603Z,9.77
2022-09-12T22:05:58.961Z,7.13
2022-09-12T22:08:27.259Z,8.02
2022-09-12T22:10:59.631Z,8.85
2022-09-12T22:13:27.156Z,6.47
2022-09-12T22:15:54.638Z,8.93
2022-09-12T22:18:22.070Z,9.80
2022-09-12T22:20:49.620Z,9.68
2022-09-12T22:23:35.782Z,6.13
2022-09-12T22:26:03.479Z,11.13
2022-09-12T22:28:32.156Z,9.00
2022-09-12T22:30:59.739Z,11.82
2022-09-12T22:33:28.125Z,8.88
2022-09-12T22:35:55.576Z,7.47
2022-09-12T22:38:24.747Z,5.50
2022-09-12T22:40:52.191Z,7.85
2022-09-12T22:43:19.624Z,8.73
2022-09-12T22:45:47.069Z,10.60
2022-09-12T22:48:14.658Z,8.30
2022-09-12T22:50:42.485Z,6.72
2022-09-12T22:53:09.879Z,9.10
2022-09-12T22:55:37.659Z,7.82
2022-09-12T22:58:05.067Z,6.15
2022-09-12T23:00:32.720Z,7.13
2022-09-12T23:03:00.389Z,7.72
2022-09-12T23:05:28.172Z,6.28
2022-09-12T23:07:55.617Z,8.15
2022-09-12T23:10:23.091Z,13.07
2022-09-12T23:12:50.511Z,5.30
2022-09-12T23:15:17.924Z,8.30
2022-09-12T23:17:45.330Z,9.27
2022-09-12T23:20:13.029Z,9.25
2022-09-12T23:22:40.412Z,10.75
2022-09-12T23:25:08.303Z,6.55
2022-09-12T23:27:35.763Z,11.60
2022-09-12T23:30:03.629Z,9.48
2022-09-12T23:32:31.163Z,6.18
2022-09-12T23:34:59.004Z,7.80
2022-09-12T23:37:26.819Z,7.93
2022-09-12T23:39:54.273Z,7.75
2022-09-12T23:42:22.252Z,9.43
2022-09-12T23:44:49.847Z,17.50
2022-09-12T23:47:18.428Z,9.60
2022-09-12T23:49:45.853Z,11.60
2022-09-12T23:52:13.585Z,10.93
2022-09-12T23:54:41.085Z,8.90
2022-09-12T23:57:08.547Z,10.07
2022-09-12T23:59:35.951Z,5.60
